ENBL/FDE METAR and TAF weather

Enter ICAO airport designator
Station Type Date Time Source
ENBL METAR 2018/04/21 14:50 UTC NOAA

ENBL 211450Z 25008KT 4000 -SHRA FEW/// SCT007 BKN010 05/04 Q1018


Station Type Date Time Source
ENBL Decoded METAR 2018/04/21 14:50 UTC NOAA

Forde / Bringeland, Norway (ENBL) 61-27N 005-52E
Apr 21, 2018 - 10:50 AM EDT / 2018.04.21 1450 UTC
Wind: from the WSW (250 degrees) at 9 MPH (8 KT):0
Visibility: 2 mile(s):0
Sky conditions: mostly cloudy
Weather: light rain showers
Temperature: 41 F (5 C)
Dew Point: 39 F (4 C)
Relative Humidity: 93%
Pressure (altimeter): 30.06 in. Hg (1018 hPa)
ob: ENBL 211450Z 25008KT 4000 -SHRA FEW/// SCT007 BKN010 05/04 Q1018
cycle: 15

Station Type Date Time Source
ENBL TAF UTC NOAA

Error!


Example: see airport list